createdAt,value
2019-04-11T00:02:02.557Z,94237.52
2019-04-11T00:04:32.950Z,94246.75
2019-04-11T00:07:03.907Z,94217.91
2019-04-11T00:09:34.551Z,94234.60
2019-04-11T00:12:06.619Z,94212.20
2019-04-11T00:14:37.951Z,94213.81
2019-04-11T00:17:09.974Z,94209.30
2019-04-11T00:19:40.465Z,94222.27
2019-04-11T00:22:11.113Z,94189.72
2019-04-11T00:24:43.032Z,94180.00
2019-04-11T00:27:14.891Z,94161.05
2019-04-11T00:29:45.371Z,94146.00
2019-04-11T00:32:17.033Z,94173.98
2019-04-11T00:34:47.481Z,94150.70
2019-04-11T00:37:19.012Z,94186.31
2019-04-11T00:39:50.011Z,94143.59
2019-04-11T00:42:20.794Z,94139.06
2019-04-11T00:44:51.488Z,94142.28
2019-04-11T00:47:22.736Z,94133.05
2019-04-11T00:49:53.177Z,94104.86
2019-04-11T00:52:23.572Z,94096.32
2019-04-11T00:54:55.289Z,94065.17
2019-04-11T00:57:25.687Z,94117.02
2019-04-11T00:59:56.489Z,94144.89
2019-04-11T01:02:26.944Z,94175.78
2019-04-11T01:04:57.269Z,94137.58
2019-04-11T01:07:27.621Z,94136.77
2019-04-11T01:09:58.928Z,94141.78
2019-04-11T01:12:29.871Z,94100.34
2019-04-11T01:15:00.264Z,94072.67
2019-04-11T01:17:31.530Z,94095.33
2019-04-11T01:20:02.967Z,94112.47
2019-04-11T01:22:34.014Z,94097.23
2019-04-11T01:25:04.934Z,94081.39
2019-04-11T01:27:36.239Z,94091.92
2019-04-11T01:30:09.233Z,94088.52
2019-04-11T01:32:40.277Z,94085.60
2019-04-11T01:35:10.939Z,94090.62
2019-04-11T01:37:41.953Z,94051.13
2019-04-11T01:40:12.452Z,94075.58
2019-04-11T01:42:43.710Z,94042.90
2019-04-11T01:45:17.065Z,94023.47
2019-04-11T01:47:57.379Z,94054.22
2019-04-11T01:50:30.828Z,94048.72
2019-04-11T01:53:02.546Z,94060.05
2019-04-11T01:55:33.097Z,94055.03
2019-04-11T01:58:04.507Z,94050.52
2019-04-11T02:00:54.670Z,94024.77
2019-04-11T02:03:37.228Z,94064.75
2019-04-11T02:06:07.725Z,94073.97
2019-04-11T02:08:38.069Z,94042.41
2019-04-11T02:11:09.860Z,94044.81
2019-04-11T02:13:40.206Z,94057.14
2019-04-11T02:16:10.641Z,94055.33
2019-04-11T02:18:40.991Z,94032.37
2019-04-11T02:21:11.627Z,94047.41
2019-04-11T02:24:05.791Z,94052.92
2019-04-11T02:26:37.614Z,94057.14
2019-04-11T02:29:10.904Z,94033.98
2019-04-11T02:31:42.403Z,94048.72
2019-04-11T02:34:13.626Z,94076.38
2019-04-11T02:36:45.177Z,94069.77
2019-04-11T02:39:19.183Z,94083.19
2019-04-11T02:41:48.177Z,94081.70
2019-04-11T02:44:53.219Z,94123.83
2019-04-11T02:47:00.718Z,94125.13
2019-04-11T02:49:25.773Z,94101.45
2019-04-11T02:51:56.109Z,94142.28
2019-04-11T02:54:28.214Z,94159.44
2019-04-11T02:57:02.546Z,94136.47
2019-04-11T02:59:34.370Z,94156.22
2019-04-11T03:02:06.903Z,94164.14
2019-04-11T03:04:39.196Z,94158.63
2019-04-11T03:07:12.328Z,94171.08
2019-04-11T03:09:44.041Z,94153.42
2019-04-11T03:12:15.609Z,94128.34
2019-04-11T03:15:07.814Z,94136.47
2019-04-11T03:17:23.052Z,94122.72
2019-04-11T03:20:02.696Z,94152.63
2019-04-11T03:22:26.810Z,94143.59
2019-04-11T03:25:00.054Z,94160.73
2019-04-11T03:27:30.514Z,94163.03
2019-04-11T03:30:03.169Z,94138.27
2019-04-11T03:33:29.860Z,94140.37
2019-04-11T03:36:01.243Z,94172.56
2019-04-11T03:38:00.393Z,94130.64
2019-04-11T03:40:32.105Z,94137.45
2019-04-11T03:42:59.899Z,94102.14
2019-04-11T03:45:40.144Z,94091.11
2019-04-11T03:48:06.110Z,94081.09
2019-04-11T03:50:26.087Z,94110.56
2019-04-11T03:52:57.849Z,94092.91
2019-04-11T03:55:30.751Z,94123.83
2019-04-11T03:58:01.226Z,94126.13
2019-04-11T04:00:36.205Z,94136.96
2019-04-11T04:03:06.150Z,94114.27
2019-04-11T04:05:38.985Z,94169.97
2019-04-11T04:08:10.777Z,94167.55
2019-04-11T04:11:00.678Z,94170.16
2019-04-11T04:13:31.981Z,94135.16
2019-04-11T04:16:27.350Z,94181.11
2019-04-11T04:19:01.049Z,94204.47
2019-04-11T04:21:57.478Z,94168.66
2019-04-11T04:24:34.075Z,94216.91
2019-04-11T04:27:04.556Z,94236.90
2019-04-11T04:29:37.735Z,94226.83
2019-04-11T04:32:08.197Z,94209.98
2019-04-11T04:34:40.149Z,94209.48
2019-04-11T04:37:12.029Z,94226.83
2019-04-11T04:39:43.562Z,94251.77
2019-04-11T04:42:23.839Z,94238.39
2019-04-11T04:44:46.779Z,94281.27
2019-04-11T04:47:25.020Z,94287.28
2019-04-11T04:49:52.221Z,94275.94
2019-04-11T04:52:22.730Z,94338.02
2019-04-11T04:54:54.824Z,94368.34
2019-04-11T04:57:26.784Z,94411.01
2019-04-11T04:59:59.898Z,94425.27
2019-04-11T05:02:30.941Z,94440.84
2019-04-11T05:05:06.139Z,94433.70
2019-04-11T05:07:40.155Z,94480.77
2019-04-11T05:10:09.049Z,94500.88
2019-04-11T05:12:39.476Z,94529.42
2019-04-11T05:15:12.189Z,94542.89
2019-04-11T05:17:44.465Z,94558.51
2019-04-11T05:20:16.190Z,94645.20
2019-04-11T05:22:47.255Z,94670.89
2019-04-11T05:25:20.368Z,94706.80
2019-04-11T05:27:50.749Z,94754.72
2019-04-11T05:30:21.159Z,94818.47
2019-04-11T05:32:51.451Z,94810.82
2019-04-11T05:35:34.378Z,94828.05
2019-04-11T05:38:04.988Z,94878.95
2019-04-11T05:40:35.273Z,94891.34
2019-04-11T05:43:05.995Z,94887.61
2019-04-11T05:45:36.507Z,94887.61
2019-04-11T05:48:10.156Z,94908.08
2019-04-11T05:50:45.466Z,94953.49
2019-04-11T05:53:13.697Z,94936.57
2019-04-11T05:55:47.158Z,94967.24
2019-04-11T05:58:17.678Z,94979.38
2019-04-11T06:00:57.867Z,95042.23
2019-04-11T06:03:28.442Z,95093.02
2019-04-11T06:06:18.398Z,95134.58
2019-04-11T06:08:49.482Z,95130.34
2019-04-11T06:11:24.302Z,95136.69
2019-04-11T06:14:13.112Z,95128.72
2019-04-11T06:16:56.155Z,95188.84
2019-04-11T06:19:45.810Z,95300.35
2019-04-11T06:22:17.163Z,95830.30
2019-04-11T06:25:09.190Z,96773.67
2019-04-11T06:27:49.668Z,97439.34
2019-04-11T06:30:30.521Z,97317.47
2019-04-11T06:33:13.142Z,96748.98
2019-04-11T06:36:14.694Z,96499.24
2019-04-11T06:39:03.029Z,96379.52
2019-04-11T06:42:01.621Z,96185.76
2019-04-11T06:44:52.128Z,96008.77
2019-04-11T06:47:45.077Z,95708.97
2019-04-11T06:50:27.047Z,95531.64
2019-04-11T06:52:58.204Z,95529.02
2019-04-11T06:56:03.573Z,95520.53
2019-04-11T06:58:39.995Z,95587.70
2019-04-11T07:01:14.498Z,95586.88
2019-04-11T07:03:49.136Z,95594.39
2019-04-11T07:06:23.556Z,95607.62
2019-04-11T07:09:16.715Z,95631.13
2019-04-11T07:11:53.737Z,95756.23
2019-04-11T07:14:33.262Z,95769.48
2019-04-11T07:17:21.491Z,95682.97
2019-04-11T07:20:06.928Z,95750.81
2019-04-11T07:22:55.671Z,96142.14
2019-04-11T07:25:48.733Z,96490.38
2019-04-11T07:28:36.809Z,96457.70
2019-04-11T07:31:25.461Z,96626.77
2019-04-11T07:34:19.368Z,96649.17
2019-04-11T07:37:07.397Z,96419.77
2019-04-11T07:40:03.321Z,96171.34
2019-04-11T07:42:52.851Z,96011.89
2019-04-11T07:45:28.509Z,96020.91
2019-04-11T07:48:07.114Z,96038.26
2019-04-11T07:50:36.912Z,96015.65
2019-04-11T07:53:08.688Z,96002.23
2019-04-11T07:55:40.203Z,95868.94
2019-04-11T07:58:47.919Z,95738.73
2019-04-11T08:01:49.323Z,95741.67
2019-04-11T08:04:38.679Z,95610.92
2019-04-11T08:07:28.269Z,95651.11
2019-04-11T08:10:03.003Z,95701.95
2019-04-11T08:12:34.657Z,95728.09
2019-04-11T08:15:27.923Z,95584.12
2019-04-11T08:18:00.402Z,95590.00
2019-04-11T08:20:59.078Z,95597.19
2019-04-11T08:23:29.792Z,96001.59
2019-04-11T08:26:33.935Z,96484.96
2019-04-11T08:29:10.600Z,96840.33
2019-04-11T08:35:33.149Z,97349.81
2019-04-11T08:38:08.188Z,97455.36
2019-04-11T08:40:45.210Z,97392.41
2019-04-11T08:43:19.747Z,97302.25
2019-04-11T08:45:54.597Z,97347.01
2019-04-11T08:48:25.085Z,97144.53
2019-04-11T08:51:00.951Z,96997.14
2019-04-11T08:53:55.187Z,97011.97
2019-04-11T08:56:25.845Z,96798.22
2019-04-11T08:59:29.250Z,97585.76
2019-04-11T09:02:00.416Z,98505.92
2019-04-11T09:05:12.001Z,98192.99
2019-04-11T09:07:43.459Z,97618.66
2019-04-11T09:10:33.803Z,96987.23
2019-04-11T09:13:13.634Z,96498.78
2019-04-11T09:16:01.781Z,96170.40
2019-04-11T09:18:32.487Z,95949.37
2019-04-11T09:21:34.637Z,95996.02
2019-04-11T09:24:10.275Z,96034.84
2019-04-11T09:26:58.744Z,96052.37
2019-04-11T09:29:32.432Z,96104.81
2019-04-11T09:32:22.216Z,96214.17
2019-04-11T09:35:00.539Z,96327.52
2019-04-11T09:37:33.925Z,96555.64
2019-04-11T09:40:24.285Z,96849.72
2019-04-11T09:43:12.475Z,97076.42
2019-04-11T09:45:57.701Z,97508.22
2019-04-11T09:48:46.371Z,97469.23
2019-04-11T09:51:40.106Z,97589.39
2019-04-11T09:54:30.699Z,97532.34
2019-04-11T09:57:38.256Z,97500.45
2019-04-11T10:00:28.889Z,97790.59
2019-04-11T10:03:06.666Z,97692.27
2019-04-11T10:06:05.285Z,97384.64
2019-04-11T10:08:57.615Z,97079.88
2019-04-11T10:11:59.161Z,96818.45
2019-04-11T10:14:31.497Z,96637.98
2019-04-11T10:17:22.616Z,96497.97
2019-04-11T10:20:00.849Z,96314.39
2019-04-11T10:22:54.351Z,96272.73
2019-04-11T10:25:37.194Z,96187.59
2019-04-11T10:28:27.280Z,96064.52
2019-04-11T10:31:18.125Z,96044.53
2019-04-11T10:34:14.461Z,96174.48
2019-04-11T10:37:13.724Z,96266.66
2019-04-11T10:40:04.549Z,96374.48
2019-04-11T10:42:35.236Z,97066.37
2019-04-11T10:45:41.115Z,97820.70
2019-04-11T10:48:11.713Z,98740.48
2019-04-11T10:51:13.051Z,99070.69
2019-04-11T10:53:43.838Z,98646.23
2019-04-11T10:56:35.976Z,98697.13
2019-04-11T10:59:07.115Z,99401.23
2019-04-11T11:01:56.087Z,99746.67
2019-04-11T11:04:45.592Z,99072.46
2019-04-11T11:07:21.765Z,98135.72
2019-04-11T11:09:59.414Z,97518.30
2019-04-11T11:12:37.776Z,97180.48
2019-04-11T11:15:11.538Z,96987.40
2019-04-11T11:18:32.032Z,97119.80
2019-04-11T11:20:55.014Z,97157.06
2019-04-11T11:23:39.266Z,97178.83
2019-04-11T11:26:12.633Z,97195.48
2019-04-11T11:28:48.783Z,97132.50
2019-04-11T11:31:36.175Z,97168.94
2019-04-11T11:34:09.295Z,97217.75
2019-04-11T11:36:58.603Z,97150.63
2019-04-11T11:39:49.638Z,97179.66
2019-04-11T11:42:38.665Z,97241.86
2019-04-11T11:45:19.438Z,97022.84
2019-04-11T11:48:23.313Z,96919.72
2019-04-11T11:50:53.279Z,96927.28
2019-04-11T11:53:31.301Z,96883.80
2019-04-11T11:56:02.135Z,96895.84
2019-04-11T11:58:58.021Z,96836.39
2019-04-11T12:01:27.435Z,96826.52
2019-04-11T12:04:32.932Z,96834.08
2019-04-11T12:07:06.018Z,96881.16
2019-04-11T12:10:04.358Z,96765.29
2019-04-11T12:12:48.419Z,96908.19
2019-04-11T12:15:37.228Z,97521.94
2019-04-11T12:18:18.479Z,98678.53
2019-04-11T12:20:57.079Z,99276.92
2019-04-11T12:23:46.593Z,98478.95
2019-04-11T12:26:06.375Z,97813.41
2019-04-11T12:29:14.306Z,97246.48
2019-04-11T12:31:50.314Z,96796.91
2019-04-11T12:34:38.690Z,96560.89
2019-04-11T12:37:14.813Z,96564.70
2019-04-11T12:40:04.600Z,96507.00
2019-04-11T12:42:37.462Z,96477.92
2019-04-11T12:45:36.941Z,96231.39
2019-04-11T12:48:11.951Z,96280.12
2019-04-11T12:50:58.364Z,96384.65
2019-04-11T12:53:28.937Z,96502.23
2019-04-11T12:56:21.603Z,96508.14
2019-04-11T12:59:04.260Z,96574.38
2019-04-11T13:02:02.873Z,96622.36
2019-04-11T13:04:35.331Z,96613.81
2019-04-11T13:07:34.304Z,96826.84
2019-04-11T13:10:26.307Z,97070.66
2019-04-11T13:13:19.026Z,97157.06
2019-04-11T13:16:11.425Z,96973.89
2019-04-11T13:18:51.231Z,96800.84
2019-04-11T13:21:36.346Z,96610.86
2019-04-11T13:24:24.705Z,96448.04
2019-04-11T13:27:14.016Z,96470.20
2019-04-11T13:30:03.341Z,96454.94
2019-04-11T13:32:57.707Z,96410.26
2019-04-11T13:35:41.129Z,96456.25
2019-04-11T13:38:14.763Z,96470.70
2019-04-11T13:41:20.712Z,96614.63
2019-04-11T13:43:57.002Z,96686.34
2019-04-11T13:46:46.315Z,96685.02
2019-04-11T13:49:35.002Z,96985.91
2019-04-11T13:52:28.735Z,97001.42
2019-04-11T13:55:03.910Z,96903.25
2019-04-11T13:57:57.618Z,96824.21
2019-04-11T14:00:39.926Z,96820.42
2019-04-11T14:03:22.464Z,96704.44
2019-04-11T14:05:53.038Z,96620.23
2019-04-11T14:08:28.152Z,96605.11
2019-04-11T14:11:06.668Z,96506.33
2019-04-11T14:13:41.784Z,96446.73
2019-04-11T14:16:20.699Z,96342.47
2019-04-11T14:19:18.161Z,96388.92
2019-04-11T14:21:49.365Z,96364.63
2019-04-11T14:24:29.794Z,96296.19
2019-04-11T14:27:02.760Z,96376.94
2019-04-11T14:29:54.726Z,96311.44
2019-04-11T14:32:27.887Z,96368.08
2019-04-11T14:35:23.394Z,96406.46
2019-04-11T14:38:10.820Z,96465.44
2019-04-11T14:41:11.829Z,96404.01
2019-04-11T14:43:46.887Z,96393.66
2019-04-11T14:46:25.746Z,96339.67
2019-04-11T14:49:11.177Z,96339.34
2019-04-11T14:52:00.497Z,96275.50
2019-04-11T14:54:39.974Z,96193.00
2019-04-11T14:57:17.986Z,96043.36
2019-04-11T14:59:53.870Z,95960.33
2019-04-11T15:02:41.359Z,95856.85
2019-04-11T15:05:26.599Z,95863.09
2019-04-11T15:07:58.527Z,95826.11
2019-04-11T15:10:54.064Z,95817.92
2019-04-11T15:13:27.480Z,95802.22
2019-04-11T15:16:15.431Z,95764.41
2019-04-11T15:18:51.790Z,95814.48
2019-04-11T15:21:39.999Z,95817.61
2019-04-11T15:24:11.054Z,95809.91
2019-04-11T15:26:59.293Z,95814.66
2019-04-11T15:29:32.292Z,95871.73
2019-04-11T15:32:20.585Z,95943.27
2019-04-11T15:34:56.374Z,96001.09
2019-04-11T15:37:48.081Z,95971.44
2019-04-11T15:40:29.385Z,95980.59
2019-04-11T15:43:21.819Z,96008.80
2019-04-11T15:46:14.659Z,96196.09
2019-04-11T15:49:04.979Z,96168.47
2019-04-11T15:51:39.605Z,96211.38
2019-04-11T15:54:17.866Z,96262.54
2019-04-11T15:56:54.423Z,96412.20
2019-04-11T15:59:54.289Z,96457.55
2019-04-11T16:02:43.732Z,96372.00
2019-04-11T16:05:49.213Z,96296.16
2019-04-11T16:08:39.516Z,96211.87
2019-04-11T16:11:28.736Z,96138.41
2019-04-11T16:14:18.052Z,96077.91
2019-04-11T16:17:13.990Z,96052.84
2019-04-11T16:19:47.862Z,95963.24
2019-04-11T16:22:43.170Z,96013.38
2019-04-11T16:25:18.682Z,96033.03
2019-04-11T16:28:08.327Z,95986.19
2019-04-11T16:30:40.912Z,95931.49
2019-04-11T16:33:25.636Z,95847.34
2019-04-11T16:36:17.065Z,95820.20
2019-04-11T16:39:11.308Z,95831.64
2019-04-11T16:41:56.043Z,95818.56
2019-04-11T16:44:46.227Z,95707.20
2019-04-11T16:47:43.996Z,95606.36
2019-04-11T16:50:14.686Z,95572.05
2019-04-11T16:52:45.016Z,95480.73
2019-04-11T16:55:15.375Z,95377.77
2019-04-11T16:57:45.776Z,95346.27
2019-04-11T17:00:20.369Z,95273.84
2019-04-11T17:02:48.579Z,95250.20
2019-04-11T17:05:19.126Z,95244.34
2019-04-11T17:08:25.764Z,95179.80
2019-04-11T17:11:21.562Z,95147.52
2019-04-11T17:13:52.030Z,95073.73
2019-04-11T17:16:22.521Z,94997.36
2019-04-11T17:18:52.826Z,94832.71
2019-04-11T17:21:23.417Z,94832.71
2019-04-11T17:23:58.233Z,94820.20
2019-04-11T17:26:28.990Z,94758.26
2019-04-11T17:28:59.303Z,94696.86
2019-04-11T17:31:31.464Z,94640.48
2019-04-11T17:34:02.500Z,94594.03
2019-04-11T17:36:33.953Z,94563.70
2019-04-11T17:39:07.157Z,94518.52
2019-04-11T17:41:41.725Z,94462.69
2019-04-11T17:44:11.373Z,94407.23
2019-04-11T17:46:41.705Z,94380.63
2019-04-11T17:49:12.039Z,94246.25
2019-04-11T17:51:42.916Z,94246.25
2019-04-11T17:54:14.568Z,94200.09
2019-04-11T17:56:44.867Z,94153.13
2019-04-11T17:59:18.080Z,94109.72
2019-04-11T18:01:48.445Z,94066.70
2019-04-11T18:04:18.815Z,94067.31
2019-04-11T18:06:49.380Z,94016.48
2019-04-11T18:09:25.497Z,93983.20
2019-04-11T18:11:55.876Z,93951.35
2019-04-11T18:14:24.271Z,93962.78
2019-04-11T18:16:54.674Z,94047.27
2019-04-11T18:19:25.380Z,94048.87
2019-04-11T18:22:07.045Z,94037.52
2019-04-11T18:24:28.265Z,94024.89
2019-04-11T18:26:59.955Z,94004.16
2019-04-11T18:29:30.344Z,93978.31
2019-04-11T18:32:00.620Z,93950.47
2019-04-11T18:34:31.843Z,93898.75
2019-04-11T18:37:02.765Z,93915.58
2019-04-11T18:39:33.641Z,93855.11
2019-04-11T18:42:05.439Z,93806.63
2019-04-11T18:44:35.836Z,93793.03
2019-04-11T18:47:06.141Z,93775.92
2019-04-11T18:49:36.562Z,93745.60
2019-04-11T18:52:06.972Z,93698.07
2019-04-11T18:54:37.601Z,93695.97
2019-04-11T18:57:08.056Z,93676.77
2019-04-11T18:59:39.303Z,93652.58
2019-04-11T19:02:10.453Z,93599.77
2019-04-11T19:04:42.217Z,93525.44
2019-04-11T19:07:13.829Z,93487.05
2019-04-11T19:09:46.693Z,93423.25
2019-04-11T19:12:20.587Z,93376.81
2019-04-11T19:18:23.428Z,93302.55
2019-04-11T19:20:55.441Z,93261.16
2019-04-11T19:23:26.106Z,93259.86
2019-04-11T19:25:56.646Z,93278.21
2019-04-11T19:28:27.119Z,93276.31
2019-04-11T19:30:57.479Z,93266.64
2019-04-11T19:33:27.884Z,93241.52
2019-04-11T19:35:58.509Z,93162.94
2019-04-11T19:38:31.267Z,93085.72
2019-04-11T19:41:01.615Z,93066.86
2019-04-11T19:43:32.206Z,93035.19
2019-04-11T19:46:50.972Z,92985.70
2019-04-11T19:49:20.662Z,92939.30
2019-04-11T19:51:51.383Z,92885.17
2019-04-11T19:54:21.784Z,92857.48
2019-04-11T19:56:57.400Z,92884.47
2019-04-11T19:59:29.136Z,92911.13
2019-04-11T20:01:59.526Z,92931.83
2019-04-11T20:04:30.260Z,92916.41
2019-04-11T20:07:02.079Z,92935.81
2019-04-11T20:09:32.441Z,92923.97
2019-04-11T20:12:02.773Z,92838.19
2019-04-11T20:14:34.914Z,92777.53
2019-04-11T20:17:05.494Z,92715.28
2019-04-11T20:19:35.843Z,92677.42
2019-04-11T20:22:08.600Z,92667.48
2019-04-11T20:24:38.349Z,92623.16
2019-04-11T20:27:08.791Z,92620.56
2019-04-11T20:29:39.129Z,92632.79
2019-04-11T20:32:09.847Z,92610.88
2019-04-11T20:34:40.178Z,92583.76
2019-04-11T20:37:13.002Z,92551.36
2019-04-11T20:39:46.476Z,92538.27
2019-04-11T20:42:17.082Z,92502.03
2019-04-11T20:44:46.718Z,92510.67
2019-04-11T20:47:17.110Z,92502.63
2019-04-11T20:49:49.089Z,92459.27
2019-04-11T20:52:19.458Z,92447.06
2019-04-11T20:54:49.867Z,92458.56
2019-04-11T20:57:25.660Z,92444.95
2019-04-11T20:59:52.298Z,92465.81
2019-04-11T21:02:22.705Z,92438.99
2019-04-11T21:04:52.995Z,92418.36
2019-04-11T21:07:23.368Z,92378.52
2019-04-11T21:09:53.716Z,92438.20
2019-04-11T21:12:24.100Z,92474.73
2019-04-11T21:14:54.455Z,92445.77
2019-04-11T21:17:24.805Z,92402.20
2019-04-11T21:19:57.133Z,92363.63
2019-04-11T21:22:27.470Z,92370.87
2019-04-11T21:24:59.547Z,92334.14
2019-04-11T21:27:30.032Z,92329.69
2019-04-11T21:30:00.622Z,92312.33
2019-04-11T21:32:31.841Z,92193.95
2019-04-11T21:35:03.170Z,92247.42
2019-04-11T21:37:33.597Z,92231.95
2019-04-11T21:40:05.808Z,92206.48
2019-04-11T21:42:36.803Z,92186.77
2019-04-11T21:45:07.405Z,92172.91
2019-04-11T21:47:38.090Z,92164.88
2019-04-11T21:50:09.428Z,92191.42
2019-04-11T21:52:43.306Z,92171.63
2019-04-11T21:55:15.133Z,92142.21
2019-04-11T21:57:48.340Z,92119.80
2019-04-11T22:00:23.518Z,92122.09
2019-04-11T22:02:54.488Z,92116.94
2019-04-11T22:05:28.973Z,92083.67
2019-04-11T22:07:57.534Z,92069.33
2019-04-11T22:10:28.057Z,92048.55
2019-04-11T22:12:58.379Z,92017.66
2019-04-11T22:15:28.891Z,92003.80
2019-04-11T22:17:59.267Z,91997.34
2019-04-11T22:20:29.643Z,92008.23
2019-04-11T22:23:01.598Z,91989.33
2019-04-11T22:25:32.028Z,92013.39
2019-04-11T22:28:02.609Z,92020.70
2019-04-11T22:30:33.062Z,91999.14
2019-04-11T22:33:08.451Z,91813.63
2019-04-11T22:35:38.828Z,91961.95
2019-04-11T22:38:09.235Z,91970.84
2019-04-11T22:40:39.638Z,91974.70
2019-04-11T22:43:22.533Z,92000.22
2019-04-11T22:45:42.067Z,92079.52
2019-04-11T22:48:12.422Z,92088.63
2019-04-11T22:50:42.752Z,92098.72
2019-04-11T22:53:13.617Z,92098.52
2019-04-11T22:55:43.953Z,92079.52
2019-04-11T22:58:14.789Z,92026.77
2019-04-11T23:00:45.968Z,92060.80
2019-04-11T23:03:32.966Z,92008.82
2019-04-11T23:06:03.404Z,91959.37
2019-04-11T23:08:33.855Z,91977.57
2019-04-11T23:11:04.569Z,91921.70
2019-04-11T23:13:35.000Z,91899.61
2019-04-11T23:16:05.401Z,91971.62
2019-04-11T23:18:35.719Z,91986.75
2019-04-11T23:21:06.094Z,91945.63
2019-04-11T23:23:38.015Z,91952.64
2019-04-11T23:26:08.315Z,91951.64
2019-04-11T23:28:39.055Z,91965.19
2019-04-11T23:31:09.373Z,92006.23
2019-04-11T23:33:39.699Z,92031.79
2019-04-11T23:36:10.335Z,92027.05
2019-04-11T23:38:40.695Z,92038.81
2019-04-11T23:41:11.038Z,92033.58
2019-04-11T23:43:41.369Z,92012.80
2019-04-11T23:46:11.715Z,91949.07
2019-04-11T23:48:42.078Z,91887.95
2019-04-11T23:51:12.424Z,91849.50
2019-04-11T23:53:42.805Z,91845.05
2019-04-11T23:56:13.213Z,91841.48
2019-04-11T23:58:43.573Z,91920.98
